^^
Meteo Knjazevac Station Historical Data
Daily Summary for May 11, 2021 Units:  Both    English   Metric
Daily Weekly Monthly Yearly Custom
  High: Low: Average:
Temperature: 54.3 °F /  12.4 °C 48 °F /  8.9 °C 51.2 °F /  10.7 °C
Dew Point: 47.9 °F /  8.8 °C 43.4 °F /  6.3 °C 45.7 °F /  7.6 °C
Humidity: 84% 79% 82%
Wind Speed: 2mph /  3.2km/h - 0.5mph /  0.8km/h
Wind Gust: 4mph /  6.4km/h - -
Wind- - SSW
Pressure: 30.15 in /  1020.9 hPa 30.15 in /  1020.9 hPa -
Precipitation: 0.00 in /  0 mm    
Historical Graphs
 
 
Tabular Data for May 11, 2021
Time Temperature Dew Point Pressure Wind Wind Speed Wind Gust Humidity Rainfall Rate (Hourly) solar Conditions
00:00 54.3 °F /  12.4 °C 47.9 °F /  8.8 °C 30.15in /  1020.9hPa NNE 1mph /  1.6km/h 3mph /  4.8km/h 79% 0.00in /  0mm 0 W/m2
00:10 54 °F /  12.2 °C 47.6 °F /  8.7 °C 30.15in /  1020.9hPa Calm   3mph /  4.8km/h 79% 0.00in /  0mm 0 W/m2
00:20 53.8 °F /  12.1 °C 47.4 °F /  8.6 °C 30.15in /  1020.9hPa Calm   2mph /  3.2km/h 79% 0.00in /  0mm 0 W/m2
00:30 53.4 °F /  11.9 °C 47.1 °F /  8.4 °C 30.15in /  1020.9hPa SSE 1mph /  1.6km/h 4mph /  6.4km/h 79% 0.00in /  0mm 0 W/m2
00:40 53.2 °F /  11.8 °C 46.9 °F /  8.3 °C 30.15in /  1020.9hPa SE 2mph /  3.2km/h 4mph /  6.4km/h 79% 0.00in /  0mm 0 W/m2
00:50 52.9 °F /  11.6 °C 46.9 °F /  8.3 °C 30.15in /  1020.9hPa South 1mph /  1.6km/h 4mph /  6.4km/h 80% 0.00in /  0mm 0 W/m2
01:00 52.5 °F /  11.4 °C 46.5 °F /  8.1 °C 30.15in /  1020.9hPa SSW 1mph /  1.6km/h 3mph /  4.8km/h 80% 0.00in /  0mm 0 W/m2
01:10 52.2 °F /  11.2 °C 46.2 °F /  7.9 °C 30.15in /  1020.9hPa Calm   3mph /  4.8km/h 80% 0.00in /  0mm 0 W/m2
01:20 52 °F /  11.1 °C 46.3 °F /  7.9 °C 30.15in /  1020.9hPa SSW 1mph /  1.6km/h 3mph /  4.8km/h 81% 0.00in /  0mm 0 W/m2
01:30 51.4 °F /  10.8 °C 45.8 °F /  7.7 °C 30.15in /  1020.9hPa Calm   2mph /  3.2km/h 81% 0.00in /  0mm 0 W/m2
01:40 50.9 °F /  10.5 °C 45.3 °F /  7.4 °C 30.15in /  1020.9hPa WNW 1mph /  1.6km/h 1mph /  1.6km/h 81% 0.00in /  0mm 0 W/m2
01:50 50.4 °F /  10.2 °C 44.7 °F /  7.1 °C 30.15in /  1020.9hPa Calm   2mph /  3.2km/h 81% 0.00in /  0mm 0 W/m2
02:00 50 °F /  10 °C 45 °F /  7.2 °C 30.15in /  1020.9hPa Calm   2mph /  3.2km/h 83% 0.00in /  0mm 0 W/m2
02:10 49.8 °F /  9.9 °C 45.2 °F /  7.3 °C 30.15in /  1020.9hPa NW 1mph /  1.6km/h 2mph /  3.2km/h 84% 0.00in /  0mm 0 W/m2
02:20 49.6 °F /  9.8 °C 44.7 °F /  7.1 °C 30.15in /  1020.9hPa Calm   2mph /  3.2km/h 83% 0.00in /  0mm 0 W/m2
02:30 49.5 °F /  9.7 °C 44.8 °F /  7.1 °C 30.15in /  1020.9hPa Calm   2mph /  3.2km/h 84% 0.00in /  0mm 0 W/m2
02:40 49.1 °F /  9.5 °C 44.5 °F /  6.9 °C 30.15in /  1020.9hPa WNW 1mph /  1.6km/h 2mph /  3.2km/h 84% 0.00in /  0mm 0 W/m2
02:50 48.7 °F /  9.3 °C 44.1 °F /  6.7 °C 30.15in /  1020.9hPa Calm   2mph /  3.2km/h 84% 0.00in /  0mm 0 W/m2
03:00 48.4 °F /  9.1 °C 43.8 °F /  6.6 °C 30.15in /  1020.9hPa Calm   1mph /  1.6km/h 84% 0.00in /  0mm 0 W/m2
03:10 48 °F /  8.9 °C 43.4 °F /  6.3 °C 30.15in /  1020.9hPa Calm   2mph /  3.2km/h 84% 0.00in /  0mm 0 W/m2
Knjazevac, Serbia
Compliments of Weather Underground - 2 mb